sensor_id;sensor_type;location;lat;lon;timestamp;temperature;humidity
10538;DHT22;5317;49.048;8.468;2023-03-01T00:01:35;5.90;49.20
10538;DHT22;5317;49.048;8.468;2023-03-01T00:04:02;5.80;49.20
10538;DHT22;5317;49.048;8.468;2023-03-01T00:06:29;5.80;49.30
10538;DHT22;5317;49.048;8.468;2023-03-01T00:08:56;5.90;49.50
10538;DHT22;5317;49.048;8.468;2023-03-01T00:11:27;5.80;49.60
10538;DHT22;5317;49.048;8.468;2023-03-01T00:13:55;5.80;49.70
10538;DHT22;5317;49.048;8.468;2023-03-01T00:16:26;5.80;49.80
10538;DHT22;5317;49.048;8.468;2023-03-01T00:18:54;5.70;49.90
10538;DHT22;5317;49.048;8.468;2023-03-01T00:21:21;5.80;50.10
10538;DHT22;5317;49.048;8.468;2023-03-01T00:23:49;5.70;50.00
10538;DHT22;5317;49.048;8.468;2023-03-01T00:26:18;5.70;50.00
10538;DHT22;5317;49.048;8.468;2023-03-01T00:28:46;5.70;50.10
10538;DHT22;5317;49.048;8.468;2023-03-01T00:31:15;5.60;50.00
10538;DHT22;5317;49.048;8.468;2023-03-01T00:33:43;5.70;50.20
10538;DHT22;5317;49.048;8.468;2023-03-01T00:36:11;5.60;50.20
10538;DHT22;5317;49.048;8.468;2023-03-01T00:38:39;5.60;51.00
10538;DHT22;5317;49.048;8.468;2023-03-01T00:41:06;5.60;50.30
10538;DHT22;5317;49.048;8.468;2023-03-01T00:43:34;5.60;50.30
10538;DHT22;5317;49.048;8.468;2023-03-01T00:46:04;5.60;50.30
10538;DHT22;5317;49.048;8.468;2023-03-01T00:48:31;5.60;50.20
10538;DHT22;5317;49.048;8.468;2023-03-01T00:51:04;5.60;50.30
10538;DHT22;5317;49.048;8.468;2023-03-01T00:53:31;5.60;50.30
10538;DHT22;5317;49.048;8.468;2023-03-01T00:55:58;5.50;50.30
10538;DHT22;5317;49.048;8.468;2023-03-01T00:58:26;5.50;50.50
10538;DHT22;5317;49.048;8.468;2023-03-01T01:00:53;5.50;50.50
10538;DHT22;5317;49.048;8.468;2023-03-01T01:03:21;5.50;50.50
10538;DHT22;5317;49.048;8.468;2023-03-01T01:05:50;5.60;50.60
10538;DHT22;5317;49.048;8.468;2023-03-01T01:08:17;5.50;50.50
10538;DHT22;5317;49.048;8.468;2023-03-01T01:10:44;5.50;50.50
10538;DHT22;5317;49.048;8.468;2023-03-01T01:13:11;5.50;50.60
10538;DHT22;5317;49.048;8.468;2023-03-01T01:15:38;5.50;50.50
10538;DHT22;5317;49.048;8.468;2023-03-01T01:18:05;5.50;50.60
10538;DHT22;5317;49.048;8.468;2023-03-01T01:20:35;5.50;50.80
10538;DHT22;5317;49.048;8.468;2023-03-01T01:23:05;5.50;51.00
10538;DHT22;5317;49.048;8.468;2023-03-01T01:25:34;5.50;51.00
10538;DHT22;5317;49.048;8.468;2023-03-01T01:28:01;5.50;51.00
10538;DHT22;5317;49.048;8.468;2023-03-01T01:30:28;5.50;51.00
10538;DHT22;5317;49.048;8.468;2023-03-01T01:32:55;5.50;51.00
10538;DHT22;5317;49.048;8.468;2023-03-01T01:35:21;5.50;51.00
10538;DHT22;5317;49.048;8.468;2023-03-01T01:37:50;5.50;51.00
10538;DHT22;5317;49.048;8.468;2023-03-01T01:40:17;5.50;51.00
10538;DHT22;5317;49.048;8.468;2023-03-01T01:42:44;5.40;50.90
10538;DHT22;5317;49.048;8.468;2023-03-01T01:45:29;5.40;51.00
10538;DHT22;5317;49.048;8.468;2023-03-01T01:48:00;5.50;51.20
10538;DHT22;5317;49.048;8.468;2023-03-01T01:50:28;5.40;51.00
10538;DHT22;5317;49.048;8.468;2023-03-01T01:53:05;5.40;51.10
10538;DHT22;5317;49.048;8.468;2023-03-01T01:55:33;5.40;51.30
10538;DHT22;5317;49.048;8.468;2023-03-01T01:58:04;5.40;51.30
10538;DHT22;5317;49.048;8.468;2023-03-01T02:00:32;5.40;51.40
10538;DHT22;5317;49.048;8.468;2023-03-01T02:03:02;5.40;51.60
10538;DHT22;5317;49.048;8.468;2023-03-01T02:05:35;5.40;51.60
10538;DHT22;5317;49.048;8.468;2023-03-01T02:08:05;5.40;51.70
10538;DHT22;5317;49.048;8.468;2023-03-01T02:10:33;5.40;51.70
10538;DHT22;5317;49.048;8.468;2023-03-01T02:13:01;5.30;51.60
10538;DHT22;5317;49.048;8.468;2023-03-01T02:15:33;5.30;51.50
10538;DHT22;5317;49.048;8.468;2023-03-01T02:18:01;5.30;51.60
10538;DHT22;5317;49.048;8.468;2023-03-01T02:20:33;5.30;51.60
10538;DHT22;5317;49.048;8.468;2023-03-01T02:23:02;5.30;51.70
10538;DHT22;5317;49.048;8.468;2023-03-01T02:25:37;5.30;51.60
10538;DHT22;5317;49.048;8.468;2023-03-01T02:28:17;5.30;51.80
10538;DHT22;5317;49.048;8.468;2023-03-01T02:30:46;5.30;51.80
10538;DHT22;5317;49.048;8.468;2023-03-01T02:33:27;5.30;51.90
10538;DHT22;5317;49.048;8.468;2023-03-01T02:35:59;5.30;51.80
10538;DHT22;5317;49.048;8.468;2023-03-01T02:38:27;5.30;51.70
10538;DHT22;5317;49.048;8.468;2023-03-01T02:40:55;5.30;51.80
10538;DHT22;5317;49.048;8.468;2023-03-01T02:43:29;5.30;51.80
10538;DHT22;5317;49.048;8.468;2023-03-01T02:45:59;5.30;51.70
10538;DHT22;5317;49.048;8.468;2023-03-01T02:48:40;5.30;51.70
10538;DHT22;5317;49.048;8.468;2023-03-01T02:51:13;5.30;51.60
10538;DHT22;5317;49.048;8.468;2023-03-01T02:53:49;5.30;51.50
10538;DHT22;5317;49.048;8.468;2023-03-01T02:56:20;5.40;51.50
10538;DHT22;5317;49.048;8.468;2023-03-01T02:58:48;5.30;51.50
10538;DHT22;5317;49.048;8.468;2023-03-01T03:01:17;5.30;51.50
10538;DHT22;5317;49.048;8.468;2023-03-01T03:03:44;5.40;51.50
10538;DHT22;5317;49.048;8.468;2023-03-01T03:06:11;5.30;51.50
10538;DHT22;5317;49.048;8.468;2023-03-01T03:08:38;5.30;51.50
10538;DHT22;5317;49.048;8.468;2023-03-01T03:11:05;5.30;51.60
10538;DHT22;5317;49.048;8.468;2023-03-01T03:13:32;5.20;51.60
10538;DHT22;5317;49.048;8.468;2023-03-01T03:16:02;5.20;51.70
10538;DHT22;5317;49.048;8.468;2023-03-01T03:18:30;5.20;51.70
10538;DHT22;5317;49.048;8.468;2023-03-01T03:20:57;5.20;51.80
10538;DHT22;5317;49.048;8.468;2023-03-01T03:23:24;5.20;51.80
10538;DHT22;5317;49.048;8.468;2023-03-01T03:25:51;5.20;51.70
10538;DHT22;5317;49.048;8.468;2023-03-01T03:28:18;5.30;51.60
10538;DHT22;5317;49.048;8.468;2023-03-01T03:30:45;5.30;51.60
10538;DHT22;5317;49.048;8.468;2023-03-01T03:33:14;5.30;51.50
10538;DHT22;5317;49.048;8.468;2023-03-01T03:35:42;5.30;51.60
10538;DHT22;5317;49.048;8.468;2023-03-01T03:38:10;5.20;51.70
10538;DHT22;5317;49.048;8.468;2023-03-01T03:40:43;5.20;51.70
10538;DHT22;5317;49.048;8.468;2023-03-01T03:43:12;5.20;51.90
10538;DHT22;5317;49.048;8.468;2023-03-01T03:45:40;5.20;51.80
10538;DHT22;5317;49.048;8.468;2023-03-01T03:48:08;5.30;51.80
10538;DHT22;5317;49.048;8.468;2023-03-01T03:50:38;5.20;51.80
10538;DHT22;5317;49.048;8.468;2023-03-01T03:53:07;5.30;52.00
10538;DHT22;5317;49.048;8.468;2023-03-01T03:55:34;5.30;52.00
10538;DHT22;5317;49.048;8.468;2023-03-01T03:58:05;5.30;51.90
10538;DHT22;5317;49.048;8.468;2023-03-01T04:00:34;5.30;52.00
10538;DHT22;5317;49.048;8.468;2023-03-01T04:03:02;5.30;52.00
10538;DHT22;5317;49.048;8.468;2023-03-01T04:05:29;5.30;51.90
10538;DHT22;5317;49.048;8.468;2023-03-01T04:07:58;5.30;52.00
10538;DHT22;5317;49.048;8.468;2023-03-01T04:10:34;5.30;52.00
10538;DHT22;5317;49.048;8.468;2023-03-01T04:13:02;5.30;52.00
10538;DHT22;5317;49.048;8.468;2023-03-01T04:15:28;5.30;52.00
10538;DHT22;5317;49.048;8.468;2023-03-01T04:17:56;5.30;52.10
10538;DHT22;5317;49.048;8.468;2023-03-01T04:20:26;5.20;52.00
10538;DHT22;5317;49.048;8.468;2023-03-01T04:23:01;5.20;52.10
10538;DHT22;5317;49.048;8.468;2023-03-01T04:25:36;5.30;52.20
10538;DHT22;5317;49.048;8.468;2023-03-01T04:28:03;5.20;52.10
10538;DHT22;5317;49.048;8.468;2023-03-01T04:30:30;5.20;52.10
10538;DHT22;5317;49.048;8.468;2023-03-01T04:33:01;5.20;52.10
10538;DHT22;5317;49.048;8.468;2023-03-01T04:35:29;5.20;52.30
10538;DHT22;5317;49.048;8.468;2023-03-01T04:37:57;5.10;52.10
10538;DHT22;5317;49.048;8.468;2023-03-01T04:40:24;5.10;52.20
10538;DHT22;5317;49.048;8.468;2023-03-01T04:42:51;5.10;52.10
10538;DHT22;5317;49.048;8.468;2023-03-01T04:45:18;5.10;52.10
10538;DHT22;5317;49.048;8.468;2023-03-01T04:47:46;5.00;52.20
10538;DHT22;5317;49.048;8.468;2023-03-01T04:50:14;5.00;52.20
10538;DHT22;5317;49.048;8.468;2023-03-01T04:52:41;5.00;52.40
10538;DHT22;5317;49.048;8.468;2023-03-01T04:55:10;5.00;52.50
10538;DHT22;5317;49.048;8.468;2023-03-01T04:57:38;5.00;52.60
10538;DHT22;5317;49.048;8.468;2023-03-01T05:00:07;5.00;52.70
10538;DHT22;5317;49.048;8.468;2023-03-01T05:02:46;5.00;52.70
10538;DHT22;5317;49.048;8.468;2023-03-01T05:05:14;5.00;52.70
10538;DHT22;5317;49.048;8.468;2023-03-01T05:07:41;5.00;52.70
10538;DHT22;5317;49.048;8.468;2023-03-01T05:10:10;5.00;52.70
10538;DHT22;5317;49.048;8.468;2023-03-01T05:12:37;4.90;52.60
10538;DHT22;5317;49.048;8.468;2023-03-01T05:15:04;4.90;52.70
10538;DHT22;5317;49.048;8.468;2023-03-01T05:17:32;4.90;52.70
10538;DHT22;5317;49.048;8.468;2023-03-01T05:19:59;4.90;52.70
10538;DHT22;5317;49.048;8.468;2023-03-01T05:22:26;4.90;52.70
10538;DHT22;5317;49.048;8.468;2023-03-01T05:24:53;4.80;52.70
10538;DHT22;5317;49.048;8.468;2023-03-01T05:27:21;4.80;52.80
10538;DHT22;5317;49.048;8.468;2023-03-01T05:29:48;4.80;52.90
10538;DHT22;5317;49.048;8.468;2023-03-01T05:32:15;4.80;52.80
10538;DHT22;5317;49.048;8.468;2023-03-01T05:34:42;4.80;52.90
10538;DHT22;5317;49.048;8.468;2023-03-01T05:37:09;4.70;52.80
10538;DHT22;5317;49.048;8.468;2023-03-01T05:39:36;4.70;52.90
10538;DHT22;5317;49.048;8.468;2023-03-01T05:42:03;4.70;53.00
10538;DHT22;5317;49.048;8.468;2023-03-01T05:44:32;4.70;53.00
10538;DHT22;5317;49.048;8.468;2023-03-01T05:46:58;4.70;53.00
10538;DHT22;5317;49.048;8.468;2023-03-01T05:49:25;4.80;53.00
10538;DHT22;5317;49.048;8.468;2023-03-01T05:51:53;4.80;53.00
10538;DHT22;5317;49.048;8.468;2023-03-01T05:54:21;4.80;53.00
10538;DHT22;5317;49.048;8.468;2023-03-01T05:56:48;4.80;52.90
10538;DHT22;5317;49.048;8.468;2023-03-01T05:59:15;4.80;52.90
10538;DHT22;5317;49.048;8.468;2023-03-01T06:01:43;4.80;52.90
10538;DHT22;5317;49.048;8.468;2023-03-01T06:04:10;4.90;52.90
10538;DHT22;5317;49.048;8.468;2023-03-01T06:06:37;4.80;52.80
10538;DHT22;5317;49.048;8.468;2023-03-01T06:09:05;4.80;52.90
10538;DHT22;5317;49.048;8.468;2023-03-01T06:11:33;4.80;52.90
10538;DHT22;5317;49.048;8.468;2023-03-01T06:14:00;4.80;53.00
10538;DHT22;5317;49.048;8.468;2023-03-01T06:16:27;4.80;53.10
10538;DHT22;5317;49.048;8.468;2023-03-01T06:18:55;4.80;53.10
10538;DHT22;5317;49.048;8.468;2023-03-01T06:21:22;4.80;53.10
10538;DHT22;5317;49.048;8.468;2023-03-01T06:23:49;4.80;53.20
10538;DHT22;5317;49.048;8.468;2023-03-01T06:26:17;4.80;53.20
10538;DHT22;5317;49.048;8.468;2023-03-01T06:28:44;4.80;53.30
10538;DHT22;5317;49.048;8.468;2023-03-01T06:31:12;4.80;53.30
10538;DHT22;5317;49.048;8.468;2023-03-01T06:33:38;4.80;53.30
10538;DHT22;5317;49.048;8.468;2023-03-01T06:36:08;4.80;53.30
10538;DHT22;5317;49.048;8.468;2023-03-01T06:38:35;4.80;53.30
10538;DHT22;5317;49.048;8.468;2023-03-01T06:41:02;4.80;53.30
10538;DHT22;5317;49.048;8.468;2023-03-01T06:43:29;4.80;53.30
10538;DHT22;5317;49.048;8.468;2023-03-01T06:45:56;4.90;53.30
10538;DHT22;5317;49.048;8.468;2023-03-01T06:48:23;4.90;53.30
10538;DHT22;5317;49.048;8.468;2023-03-01T06:50:49;4.90;54.00
10538;DHT22;5317;49.048;8.468;2023-03-01T06:53:18;4.90;53.40
10538;DHT22;5317;49.048;8.468;2023-03-01T06:55:44;5.00;53.40
10538;DHT22;5317;49.048;8.468;2023-03-01T06:58:11;5.00;53.30
10538;DHT22;5317;49.048;8.468;2023-03-01T07:00:38;5.00;53.30
10538;DHT22;5317;49.048;8.468;2023-03-01T07:03:06;5.10;53.30
10538;DHT22;5317;49.048;8.468;2023-03-01T07:05:33;5.20;53.20
10538;DHT22;5317;49.048;8.468;2023-03-01T07:08:01;5.10;53.30
10538;DHT22;5317;49.048;8.468;2023-03-01T07:10:29;5.20;53.30
10538;DHT22;5317;49.048;8.468;2023-03-01T07:12:56;5.30;53.30
10538;DHT22;5317;49.048;8.468;2023-03-01T07:15:24;5.30;53.20
10538;DHT22;5317;49.048;8.468;2023-03-01T07:17:51;5.30;53.10
10538;DHT22;5317;49.048;8.468;2023-03-01T07:20:18;5.30;52.80
10538;DHT22;5317;49.048;8.468;2023-03-01T07:22:48;5.40;52.90
10538;DHT22;5317;49.048;8.468;2023-03-01T07:25:15;5.50;52.70
10538;DHT22;5317;49.048;8.468;2023-03-01T07:27:43;5.60;52.60
10538;DHT22;5317;49.048;8.468;2023-03-01T07:30:11;5.60;52.20
10538;DHT22;5317;49.048;8.468;2023-03-01T07:32:37;5.70;52.00
10538;DHT22;5317;49.048;8.468;2023-03-01T07:35:05;5.70;52.00
10538;DHT22;5317;49.048;8.468;2023-03-01T07:37:32;5.80;52.30
10538;DHT22;5317;49.048;8.468;2023-03-01T07:39:59;5.80;52.20
10538;DHT22;5317;49.048;8.468;2023-03-01T07:42:26;5.90;52.30
10538;DHT22;5317;49.048;8.468;2023-03-01T07:44:54;6.00;52.10
10538;DHT22;5317;49.048;8.468;2023-03-01T07:47:21;6.00;51.90
10538;DHT22;5317;49.048;8.468;2023-03-01T07:49:48;6.00;51.70
10538;DHT22;5317;49.048;8.468;2023-03-01T07:52:15;6.20;51.50
10538;DHT22;5317;49.048;8.468;2023-03-01T07:54:43;6.20;51.40
10538;DHT22;5317;49.048;8.468;2023-03-01T07:57:10;6.30;51.50
10538;DHT22;5317;49.048;8.468;2023-03-01T07:59:36;6.40;51.50
10538;DHT22;5317;49.048;8.468;2023-03-01T08:02:05;6.50;50.80
10538;DHT22;5317;49.048;8.468;2023-03-01T08:04:32;6.50;50.70
10538;DHT22;5317;49.048;8.468;2023-03-01T08:06:59;6.60;50.60
10538;DHT22;5317;49.048;8.468;2023-03-01T08:09:26;6.70;50.40
10538;DHT22;5317;49.048;8.468;2023-03-01T08:11:53;6.80;50.20
10538;DHT22;5317;49.048;8.468;2023-03-01T08:14:21;6.90;50.30
10538;DHT22;5317;49.048;8.468;2023-03-01T08:16:49;6.90;50.10
10538;DHT22;5317;49.048;8.468;2023-03-01T08:19:17;7.00;50.10
10538;DHT22;5317;49.048;8.468;2023-03-01T08:21:44;7.10;50.00
10538;DHT22;5317;49.048;8.468;2023-03-01T08:24:11;7.20;50.00
10538;DHT22;5317;49.048;8.468;2023-03-01T08:26:38;7.20;49.60
10538;DHT22;5317;49.048;8.468;2023-03-01T08:29:05;7.30;49.50
10538;DHT22;5317;49.048;8.468;2023-03-01T08:31:34;7.30;49.20
10538;DHT22;5317;49.048;8.468;2023-03-01T08:34:04;7.40;49.30
10538;DHT22;5317;49.048;8.468;2023-03-01T08:36:35;7.40;49.00
10538;DHT22;5317;49.048;8.468;2023-03-01T08:39:03;7.50;49.00
10538;DHT22;5317;49.048;8.468;2023-03-01T08:41:30;7.60;48.80
10538;DHT22;5317;49.048;8.468;2023-03-01T08:43:57;7.70;48.60
10538;DHT22;5317;49.048;8.468;2023-03-01T08:46:26;7.70;48.40
10538;DHT22;5317;49.048;8.468;2023-03-01T08:48:53;7.70;48.40
10538;DHT22;5317;49.048;8.468;2023-03-01T08:51:20;7.80;48.20
10538;DHT22;5317;49.048;8.468;2023-03-01T08:53:49;7.90;48.30
10538;DHT22;5317;49.048;8.468;2023-03-01T08:56:17;8.00;48.20
10538;DHT22;5317;49.048;8.468;2023-03-01T08:58:45;8.00;47.90
10538;DHT22;5317;49.048;8.468;2023-03-01T09:01:15;8.10;47.90
10538;DHT22;5317;49.048;8.468;2023-03-01T09:03:43;8.20;47.80
10538;DHT22;5317;49.048;8.468;2023-03-01T09:06:10;8.20;47.60
10538;DHT22;5317;49.048;8.468;2023-03-01T09:08:39;8.30;47.60
10538;DHT22;5317;49.048;8.468;2023-03-01T09:11:11;8.40;47.30
10538;DHT22;5317;49.048;8.468;2023-03-01T09:13:38;8.50;47.40
10538;DHT22;5317;49.048;8.468;2023-03-01T09:16:06;8.50;47.00
10538;DHT22;5317;49.048;8.468;2023-03-01T09:18:34;8.60;46.90
10538;DHT22;5317;49.048;8.468;2023-03-01T09:21:02;8.70;46.90
10538;DHT22;5317;49.048;8.468;2023-03-01T09:23:33;8.80;46.60
10538;DHT22;5317;49.048;8.468;2023-03-01T09:26:00;8.90;46.40
10538;DHT22;5317;49.048;8.468;2023-03-01T09:28:28;8.90;46.30
10538;DHT22;5317;49.048;8.468;2023-03-01T09:30:57;9.00;46.20
10538;DHT22;5317;49.048;8.468;2023-03-01T09:33:24;9.00;46.10
10538;DHT22;5317;49.048;8.468;2023-03-01T09:35:56;9.10;46.00
10538;DHT22;5317;49.048;8.468;2023-03-01T09:38:23;9.10;45.60
10538;DHT22;5317;49.048;8.468;2023-03-01T09:40:50;9.20;45.50
10538;DHT22;5317;49.048;8.468;2023-03-01T09:43:21;9.30;45.50
10538;DHT22;5317;49.048;8.468;2023-03-01T09:45:54;9.50;45.70
10538;DHT22;5317;49.048;8.468;2023-03-01T09:48:26;9.50;45.70
10538;DHT22;5317;49.048;8.468;2023-03-01T09:50:53;9.70;45.60
10538;DHT22;5317;49.048;8.468;2023-03-01T09:53:23;9.80;45.30
10538;DHT22;5317;49.048;8.468;2023-03-01T09:55:58;9.90;45.00
10538;DHT22;5317;49.048;8.468;2023-03-01T09:58:37;9.90;44.70
10538;DHT22;5317;49.048;8.468;2023-03-01T10:01:29;10.10;44.00
10538;DHT22;5317;49.048;8.468;2023-03-01T10:09:50;10.30;43.50
10538;DHT22;5317;49.048;8.468;2023-03-01T10:12:18;10.40;43.40
10538;DHT22;5317;49.048;8.468;2023-03-01T10:14:54;10.50;43.10
10538;DHT22;5317;49.048;8.468;2023-03-01T10:17:30;10.60;42.90
10538;DHT22;5317;49.048;8.468;2023-03-01T10:20:17;10.80;43.20
10538;DHT22;5317;49.048;8.468;2023-03-01T10:22:45;10.90;42.60
10538;DHT22;5317;49.048;8.468;2023-03-01T10:25:20;10.90;42.20
10538;DHT22;5317;49.048;8.468;2023-03-01T10:27:53;11.10;42.50
10538;DHT22;5317;49.048;8.468;2023-03-01T10:30:22;11.10;42.20
10538;DHT22;5317;49.048;8.468;2023-03-01T10:32:57;11.30;42.60
10538;DHT22;5317;49.048;8.468;2023-03-01T10:35:27;11.40;42.30
10538;DHT22;5317;49.048;8.468;2023-03-01T10:38:02;11.50;42.20
10538;DHT22;5317;49.048;8.468;2023-03-01T10:40:30;11.70;41.60
10538;DHT22;5317;49.048;8.468;2023-03-01T10:42:58;11.80;41.70
10538;DHT22;5317;49.048;8.468;2023-03-01T10:45:34;12.00;41.20
10538;DHT22;5317;49.048;8.468;2023-03-01T10:48:13;12.00;41.10
10538;DHT22;5317;49.048;8.468;2023-03-01T10:50:42;12.10;40.90
10538;DHT22;5317;49.048;8.468;2023-03-01T10:53:24;12.10;40.50
10538;DHT22;5317;49.048;8.468;2023-03-01T10:56:03;12.20;40.00
10538;DHT22;5317;49.048;8.468;2023-03-01T10:58:33;12.30;40.40
10538;DHT22;5317;49.048;8.468;2023-03-01T11:01:02;12.30;39.80
10538;DHT22;5317;49.048;8.468;2023-03-01T11:03:32;12.40;40.00
10538;DHT22;5317;49.048;8.468;2023-03-01T11:06:01;12.50;40.30
10538;DHT22;5317;49.048;8.468;2023-03-01T11:08:47;12.60;40.20
10538;DHT22;5317;49.048;8.468;2023-03-01T11:11:21;12.70;39.60
10538;DHT22;5317;49.048;8.468;2023-03-01T11:13:53;12.90;39.90
10538;DHT22;5317;49.048;8.468;2023-03-01T11:16:30;12.90;39.20
10538;DHT22;5317;49.048;8.468;2023-03-01T11:19:13;13.00;39.10
10538;DHT22;5317;49.048;8.468;2023-03-01T11:21:43;13.00;39.20
10538;DHT22;5317;49.048;8.468;2023-03-01T11:24:13;13.10;39.30
10538;DHT22;5317;49.048;8.468;2023-03-01T11:26:43;13.20;38.90
10538;DHT22;5317;49.048;8.468;2023-03-01T11:29:21;13.30;39.60
10538;DHT22;5317;49.048;8.468;2023-03-01T11:31:51;13.40;38.70
10538;DHT22;5317;49.048;8.468;2023-03-01T11:34:27;13.50;38.30
10538;DHT22;5317;49.048;8.468;2023-03-01T11:36:59;13.50;38.20
10538;DHT22;5317;49.048;8.468;2023-03-01T11:39:32;13.70;38.50
10538;DHT22;5317;49.048;8.468;2023-03-01T11:42:06;13.70;38.10
10538;DHT22;5317;49.048;8.468;2023-03-01T11:44:38;13.80;38.40
10538;DHT22;5317;49.048;8.468;2023-03-01T11:47:24;13.90;38.00
10538;DHT22;5317;49.048;8.468;2023-03-01T11:50:08;14.00;37.60
10538;DHT22;5317;49.048;8.468;2023-03-01T11:52:44;14.10;37.30
10538;DHT22;5317;49.048;8.468;2023-03-01T11:55:25;14.10;37.20
10538;DHT22;5317;49.048;8.468;2023-03-01T11:58:11;14.10;37.30
10538;DHT22;5317;49.048;8.468;2023-03-01T12:00:54;14.20;36.80
10538;DHT22;5317;49.048;8.468;2023-03-01T12:03:33;14.30;36.80
10538;DHT22;5317;49.048;8.468;2023-03-01T12:06:29;14.40;37.00
10538;DHT22;5317;49.048;8.468;2023-03-01T12:09:26;14.50;37.00
10538;DHT22;5317;49.048;8.468;2023-03-01T12:15:22;14.70;36.40
10538;DHT22;5317;49.048;8.468;2023-03-01T12:18:06;14.60;36.10
10538;DHT22;5317;49.048;8.468;2023-03-01T12:20:49;14.80;36.60
10538;DHT22;5317;49.048;8.468;2023-03-01T12:23:34;15.00;36.60
10538;DHT22;5317;49.048;8.468;2023-03-01T12:26:07;15.10;36.50
10538;DHT22;5317;49.048;8.468;2023-03-01T12:28:48;15.20;35.90
10538;DHT22;5317;49.048;8.468;2023-03-01T12:31:53;15.30;35.70
10538;DHT22;5317;49.048;8.468;2023-03-01T12:37:29;15.70;35.90
10538;DHT22;5317;49.048;8.468;2023-03-01T12:42:54;15.80;35.00
10538;DHT22;5317;49.048;8.468;2023-03-01T12:45:48;15.80;35.50
10538;DHT22;5317;49.048;8.468;2023-03-01T12:48:36;16.00;35.00
10538;DHT22;5317;49.048;8.468;2023-03-01T12:51:10;16.10;34.50
10538;DHT22;5317;49.048;8.468;2023-03-01T12:53:41;16.20;34.40
10538;DHT22;5317;49.048;8.468;2023-03-01T12:56:13;16.30;34.50
10538;DHT22;5317;49.048;8.468;2023-03-01T12:58:46;16.50;34.30
10538;DHT22;5317;49.048;8.468;2023-03-01T13:01:22;16.60;34.20
10538;DHT22;5317;49.048;8.468;2023-03-01T13:04:03;16.80;33.90
10538;DHT22;5317;49.048;8.468;2023-03-01T13:06:37;16.90;33.50
10538;DHT22;5317;49.048;8.468;2023-03-01T13:09:13;17.10;33.80
10538;DHT22;5317;49.048;8.468;2023-03-01T13:11:43;17.30;33.10
10538;DHT22;5317;49.048;8.468;2023-03-01T13:14:37;17.40;32.70
10538;DHT22;5317;49.048;8.468;2023-03-01T13:17:30;17.60;32.20
10538;DHT22;5317;49.048;8.468;2023-03-01T13:19:57;17.60;31.80
10538;DHT22;5317;49.048;8.468;2023-03-01T13:22:28;17.70;32.20
10538;DHT22;5317;49.048;8.468;2023-03-01T13:25:10;17.80;32.00
10538;DHT22;5317;49.048;8.468;2023-03-01T13:27:40;18.00;32.20
10538;DHT22;5317;49.048;8.468;2023-03-01T13:30:39;18.30;32.20
10538;DHT22;5317;49.048;8.468;2023-03-01T13:33:37;18.60;31.40
10538;DHT22;5317;49.048;8.468;2023-03-01T13:36:07;19.00;31.60
10538;DHT22;5317;49.048;8.468;2023-03-01T13:38:38;19.30;31.70
10538;DHT22;5317;49.048;8.468;2023-03-01T13:41:05;19.50;31.00
10538;DHT22;5317;49.048;8.468;2023-03-01T13:43:35;19.80;30.90
10538;DHT22;5317;49.048;8.468;2023-03-01T13:46:09;20.10;30.70
10538;DHT22;5317;49.048;8.468;2023-03-01T13:48:38;20.40;30.00
10538;DHT22;5317;49.048;8.468;2023-03-01T13:51:08;20.90;30.00
10538;DHT22;5317;49.048;8.468;2023-03-01T13:53:38;21.60;29.90
10538;DHT22;5317;49.048;8.468;2023-03-01T13:56:09;22.30;29.20
10538;DHT22;5317;49.048;8.468;2023-03-01T13:58:50;23.20;28.80
10538;DHT22;5317;49.048;8.468;2023-03-01T14:01:24;24.40;27.70
10538;DHT22;5317;49.048;8.468;2023-03-01T14:03:52;26.20;27.00
10538;DHT22;5317;49.048;8.468;2023-03-01T14:06:22;27.90;26.20
10538;DHT22;5317;49.048;8.468;2023-03-01T14:08:51;29.50;25.00
10538;DHT22;5317;49.048;8.468;2023-03-01T14:14:48;32.80;21.20
10538;DHT22;5317;49.048;8.468;2023-03-01T14:17:39;34.20;20.90
10538;DHT22;5317;49.048;8.468;2023-03-01T14:20:12;34.80;19.80
10538;DHT22;5317;49.048;8.468;2023-03-01T14:22:41;35.50;20.10
10538;DHT22;5317;49.048;8.468;2023-03-01T14:25:21;36.00;20.10
10538;DHT22;5317;49.048;8.468;2023-03-01T14:27:55;36.60;18.60
10538;DHT22;5317;49.048;8.468;2023-03-01T14:30:26;36.90;18.70
10538;DHT22;5317;49.048;8.468;2023-03-01T14:32:55;37.20;18.70
10538;DHT22;5317;49.048;8.468;2023-03-01T14:35:23;37.40;18.70
10538;DHT22;5317;49.048;8.468;2023-03-01T14:37:51;37.70;18.40
10538;DHT22;5317;49.048;8.468;2023-03-01T14:40:24;37.90;18.20
10538;DHT22;5317;49.048;8.468;2023-03-01T14:42:52;38.10;17.60
10538;DHT22;5317;49.048;8.468;2023-03-01T14:45:20;38.20;17.80
10538;DHT22;5317;49.048;8.468;2023-03-01T14:47:48;38.30;17.80
10538;DHT22;5317;49.048;8.468;2023-03-01T14:50:21;38.20;17.40
10538;DHT22;5317;49.048;8.468;2023-03-01T14:52:52;38.00;17.10
10538;DHT22;5317;49.048;8.468;2023-03-01T14:55:21;37.90;17.40
10538;DHT22;5317;49.048;8.468;2023-03-01T14:57:50;37.90;17.50
10538;DHT22;5317;49.048;8.468;2023-03-01T15:00:20;37.80;17.30
10538;DHT22;5317;49.048;8.468;2023-03-01T15:02:51;37.80;17.30
10538;DHT22;5317;49.048;8.468;2023-03-01T15:05:23;37.60;17.10
10538;DHT22;5317;49.048;8.468;2023-03-01T15:07:52;37.50;17.20
10538;DHT22;5317;49.048;8.468;2023-03-01T15:10:21;37.20;17.40
10538;DHT22;5317;49.048;8.468;2023-03-01T15:12:49;36.80;17.40
10538;DHT22;5317;49.048;8.468;2023-03-01T15:15:33;36.20;17.60
10538;DHT22;5317;49.048;8.468;2023-03-01T15:18:05;35.50;17.50
10538;DHT22;5317;49.048;8.468;2023-03-01T15:20:34;34.30;18.00
10538;DHT22;5317;49.048;8.468;2023-03-01T15:23:04;32.80;18.30
10538;DHT22;5317;49.048;8.468;2023-03-01T15:25:32;31.10;19.10
10538;DHT22;5317;49.048;8.468;2023-03-01T15:28:01;29.50;19.80
10538;DHT22;5317;49.048;8.468;2023-03-01T15:30:31;28.00;20.60
10538;DHT22;5317;49.048;8.468;2023-03-01T15:33:37;26.60;21.40
10538;DHT22;5317;49.048;8.468;2023-03-01T15:36:30;25.20;22.40
10538;DHT22;5317;49.048;8.468;2023-03-01T15:38:58;24.30;23.00
10538;DHT22;5317;49.048;8.468;2023-03-01T15:41:27;23.50;23.30
10538;DHT22;5317;49.048;8.468;2023-03-01T15:43:57;22.80;23.80
10538;DHT22;5317;49.048;8.468;2023-03-01T15:46:27;22.30;24.40
10538;DHT22;5317;49.048;8.468;2023-03-01T15:48:58;21.90;24.80
10538;DHT22;5317;49.048;8.468;2023-03-01T15:51:31;21.70;25.20
10538;DHT22;5317;49.048;8.468;2023-03-01T15:54:01;21.40;25.10
10538;DHT22;5317;49.048;8.468;2023-03-01T15:56:29;20.90;25.50
10538;DHT22;5317;49.048;8.468;2023-03-01T15:59:00;20.40;25.60
10538;DHT22;5317;49.048;8.468;2023-03-01T16:01:27;19.80;26.20
10538;DHT22;5317;49.048;8.468;2023-03-01T16:03:56;19.40;26.60
10538;DHT22;5317;49.048;8.468;2023-03-01T16:06:24;19.00;27.10
10538;DHT22;5317;49.048;8.468;2023-03-01T16:08:51;18.60;27.30
10538;DHT22;5317;49.048;8.468;2023-03-01T16:11:19;18.30;27.70
10538;DHT22;5317;49.048;8.468;2023-03-01T16:13:47;18.10;28.00
10538;DHT22;5317;49.048;8.468;2023-03-01T16:16:15;17.80;28.30
10538;DHT22;5317;49.048;8.468;2023-03-01T16:18:44;17.60;28.60
10538;DHT22;5317;49.048;8.468;2023-03-01T16:21:15;17.40;28.80
10538;DHT22;5317;49.048;8.468;2023-03-01T16:23:43;17.20;28.90
10538;DHT22;5317;49.048;8.468;2023-03-01T16:26:11;16.90;29.20
10538;DHT22;5317;49.048;8.468;2023-03-01T16:28:39;16.70;29.30
10538;DHT22;5317;49.048;8.468;2023-03-01T16:31:06;16.50;29.60
10538;DHT22;5317;49.048;8.468;2023-03-01T16:33:33;16.30;29.80
10538;DHT22;5317;49.048;8.468;2023-03-01T16:36:00;16.20;30.00